メインページ
METAR-TAF:

METAR-TAF

空港 :

ディオリ・アマニ国際空港

ニアメ, ニジェール

緯度: 13-29N, 経度: 002-10E, 海抜: 223m

現時点の気象観測

当レポートは45分前の14:00(UTC)に作成
変向風 2kt
気温 36°C
湿度 12%
気圧 1009 hPa
視程: 5000m
広範な塵

METAR: DRRN 191400Z VRB02KT 5000 DU NSC 36/02 Q1009 NOSIG

時間: 15:45 (14:45 UTC)

予報

当レポートは3時間45分前の11:00(UTC)に作成
予報は19日の 12時(UTC)から 20日の 18時(UTC)まで有効
の風 6kt
視程: 5000m
広範な塵
19日の 17時(UTC)から 19日の 20時(UTC)まで一時的に
視程: 2800m
広範な塵
20日の 06時(UTC)から 20日の 10時(UTC)まで一時的に
視程: 2800m
広範な塵

TAF: DRRN 191100Z 1912/2018 08006KT 5000 DU NSC TEMPO 1917/1920 2800 DU TEMPO 2006/2010 2800 DU

4,000以上の空港の気象観測と天気予報(METAR報とTAF報)

利用可能な観測所は地図上に黄色い丸と赤い丸で示す。

丸の上にカーソルを重ねると観測所名を参照できる。

次にクリックすると気象観測と天気予報を参照できる。

マップの切り替え:黒色「×」印の緑ボタンをクリックして拡大、「-」印の緑ボタンをクリックして縮小、緑色の三角印をクリックして隣りの地図に切り替え


METAR-TAF: